Decoded Metar for UKBB (KIEV in UKRAINE) (IATA:KBP) | Meteo·Mobile Aviation Weather
aviador You're here:

UKBB Decoded Metar

KIEV in UKRAINE
Report Time2019-01-18 14:00:00
UTC Time2019-01-18 14:09:35
Flight Rules vfr VFR
Wind230° at 8 kt
W.Decomp.*RWY 18: 5.7 kt HW 5.7 kt RCW
W.Rank230° ranks 12
Current wind is above 230° avg. (7.0)
Visibility9999 m
Phenomena:N/A
Clouds:Overcast 040 Hf
Expected CloudBase > 1,200 ft AGL from Temp-Dew spread
Ceiling4,000 ft
Temp02°C (ISA -12)
Dew Point-1°C (81% RH)
AAT-3.0°C
QNH1008 hPa
Density Alt-846 ft
Elevation390 ft
Report Wrong Elevation
Raw Report
METAR UKBB 181400Z 23004MPS 9999 OVC040 02/M01 Q1008
R18L/811040 R18R/821045 NOSIG=

Extra information for UKBB:More info

Metar Taf Metar & Taf Last 4 Metars F.Rules Stats Wind Profile Meteogram Temp Stats Airport Information Weather charts Add Link Nearby VenuesMetar ALERT Operation Metar Decoded Social comments